createdAt,value
2017-08-09T00:00:58.781Z,16.87
2017-08-09T00:03:25.716Z,17.93
2017-08-09T00:05:52.649Z,17.07
2017-08-09T00:08:19.596Z,20.13
2017-08-09T00:10:46.524Z,16.97
2017-08-09T00:13:14.246Z,18.17
2017-08-09T00:15:41.171Z,17.10
2017-08-09T00:18:08.151Z,19.00
2017-08-09T00:20:35.093Z,19.97
2017-08-09T00:23:02.039Z,18.23
2017-08-09T00:25:29.041Z,20.30
2017-08-09T00:27:56.012Z,20.40
2017-08-09T00:30:22.952Z,19.03
2017-08-09T00:32:49.904Z,18.13
2017-08-09T00:35:16.840Z,22.87
2017-08-09T00:37:43.812Z,31.80
2017-08-09T00:40:10.732Z,18.37
2017-08-09T00:42:37.672Z,22.27
2017-08-09T00:45:04.625Z,18.93
2017-08-09T00:47:31.557Z,23.33
2017-08-09T00:49:58.512Z,22.13
2017-08-09T00:52:26.162Z,21.17
2017-08-09T00:54:53.115Z,20.10
2017-08-09T00:57:20.036Z,22.03
2017-08-09T00:59:47.013Z,20.60
2017-08-09T01:02:13.949Z,24.73
2017-08-09T01:04:40.932Z,19.60
2017-08-09T01:07:08.641Z,20.73
2017-08-09T01:09:35.604Z,22.73
2017-08-09T01:12:02.532Z,24.50
2017-08-09T01:14:29.458Z,24.00
2017-08-09T01:16:56.399Z,26.30
2017-08-09T01:19:23.332Z,23.73
2017-08-09T01:21:50.408Z,24.97
2017-08-09T01:24:17.386Z,25.23
2017-08-09T01:26:44.325Z,27.43
2017-08-09T01:29:11.270Z,30.17
2017-08-09T01:31:38.223Z,31.97
2017-08-09T01:34:05.171Z,31.37
2017-08-09T01:36:32.121Z,29.57
2017-08-09T01:38:59.060Z,31.70
2017-08-09T01:41:26.047Z,34.20
2017-08-09T01:43:52.996Z,34.93
2017-08-09T01:46:19.953Z,38.37
2017-08-09T01:48:46.892Z,41.37
2017-08-09T01:51:13.844Z,38.30
2017-08-09T01:53:40.780Z,41.50
2017-08-09T01:56:07.733Z,44.70
2017-08-09T01:58:34.677Z,42.30
2017-08-09T02:01:01.669Z,42.70
2017-08-09T02:03:28.612Z,44.07
2017-08-09T02:05:55.565Z,47.07
2017-08-09T02:08:23.273Z,52.03
2017-08-09T02:10:50.229Z,54.43
2017-08-09T02:13:17.156Z,55.40
2017-08-09T02:15:44.110Z,55.60
2017-08-09T02:18:11.052Z,57.67
2017-08-09T02:20:37.986Z,57.57
2017-08-09T02:23:04.910Z,57.60
2017-08-09T02:25:32.628Z,55.67
2017-08-09T02:27:59.565Z,67.00
2017-08-09T02:30:26.516Z,64.20
2017-08-09T02:32:53.453Z,61.97
2017-08-09T02:35:20.438Z,69.10
2017-08-09T02:37:47.378Z,70.40
2017-08-09T02:40:15.094Z,60.43
2017-08-09T02:42:42.041Z,71.83
2017-08-09T02:45:08.977Z,73.40
2017-08-09T02:47:35.929Z,70.37
2017-08-09T02:50:02.865Z,74.33
2017-08-09T02:52:29.825Z,61.20
2017-08-09T02:54:56.760Z,69.07
2017-08-09T02:57:23.710Z,71.23
2017-08-09T02:59:50.655Z,65.97
2017-08-09T03:02:17.642Z,75.27
2017-08-09T03:04:44.584Z,76.70
2017-08-09T03:07:11.525Z,78.93
2017-08-09T03:09:38.488Z,64.07
2017-08-09T03:12:06.189Z,66.23
2017-08-09T03:14:33.176Z,65.23
2017-08-09T03:17:00.116Z,70.77
2017-08-09T03:19:27.070Z,78.93
2017-08-09T03:21:54.016Z,66.40
2017-08-09T03:24:20.959Z,71.97
2017-08-09T03:26:47.889Z,73.20
2017-08-09T03:29:14.853Z,76.27
2017-08-09T03:31:41.812Z,72.57
2017-08-09T03:34:08.766Z,77.53
2017-08-09T03:36:35.715Z,77.33
2017-08-09T03:39:02.645Z,73.27
2017-08-09T03:41:30.355Z,75.17
2017-08-09T03:43:57.293Z,68.97
2017-08-09T03:46:24.288Z,83.77
2017-08-09T03:48:51.229Z,77.23
2017-08-09T03:51:18.190Z,73.40
2017-08-09T03:53:45.899Z,69.03
2017-08-09T03:56:12.837Z,77.33
2017-08-09T03:58:40.644Z,73.20
2017-08-09T04:01:07.585Z,71.93
2017-08-09T04:03:34.547Z,63.37
2017-08-09T04:06:02.257Z,66.00
2017-08-09T04:08:29.217Z,62.00
2017-08-09T04:10:56.146Z,60.80
2017-08-09T04:13:23.104Z,59.57
2017-08-09T04:15:50.032Z,58.97
2017-08-09T04:18:16.999Z,58.97
2017-08-09T04:20:44.966Z,53.57
2017-08-09T04:23:11.918Z,58.90
2017-08-09T04:25:38.843Z,51.27
2017-08-09T04:28:05.817Z,55.10
2017-08-09T04:30:32.756Z,54.80
2017-08-09T04:32:59.729Z,55.80
2017-08-09T04:35:27.448Z,48.33
2017-08-09T04:37:54.417Z,50.37
2017-08-09T04:40:21.367Z,43.37
2017-08-09T04:42:48.306Z,38.80
2017-08-09T04:45:15.260Z,41.60
2017-08-09T04:47:42.200Z,34.43
2017-08-09T04:50:09.152Z,32.60
2017-08-09T04:52:36.852Z,33.23
2017-08-09T04:55:03.813Z,38.20
2017-08-09T04:57:30.750Z,28.53
2017-08-09T04:59:59.608Z,31.23
2017-08-09T05:02:27.316Z,29.00
2017-08-09T05:04:54.260Z,29.03
2017-08-09T05:07:21.198Z,29.30
2017-08-09T05:09:48.152Z,26.83
2017-08-09T05:12:15.093Z,27.40
2017-08-09T05:14:42.056Z,22.17
2017-08-09T05:17:08.992Z,25.93
2017-08-09T05:19:35.948Z,21.90
2017-08-09T05:22:02.889Z,19.13
2017-08-09T05:24:29.822Z,20.93
2017-08-09T05:26:56.758Z,19.77
2017-08-09T05:29:23.708Z,18.63
2017-08-09T05:31:50.630Z,23.83
2017-08-09T05:34:17.596Z,18.70
2017-08-09T05:36:44.525Z,19.93
2017-08-09T05:39:11.460Z,21.27
2017-08-09T05:41:38.446Z,22.30
2017-08-09T05:44:05.401Z,24.80
2017-08-09T05:46:32.362Z,21.27
2017-08-09T05:49:00.070Z,18.10
2017-08-09T05:51:27.060Z,24.57
2017-08-09T05:53:53.998Z,23.40
2017-08-09T05:56:20.955Z,17.20
2017-08-09T05:58:48.656Z,17.33
2017-08-09T06:01:15.612Z,19.20
2017-08-09T06:03:42.554Z,21.63
2017-08-09T06:06:09.513Z,20.57
2017-08-09T06:08:36.443Z,20.27
2017-08-09T06:11:03.420Z,19.03
2017-08-09T06:13:30.359Z,22.80
2017-08-09T06:15:57.274Z,18.90
2017-08-09T06:18:24.988Z,22.33
2017-08-09T06:20:51.925Z,21.33
2017-08-09T06:23:18.917Z,20.60
2017-08-09T06:25:45.839Z,22.67
2017-08-09T06:28:12.797Z,23.47
2017-08-09T06:30:39.757Z,26.20
2017-08-09T06:33:07.461Z,20.40
2017-08-09T06:35:34.421Z,27.50
2017-08-09T06:38:01.364Z,22.90
2017-08-09T06:40:28.322Z,25.13
2017-08-09T06:42:55.262Z,27.87
2017-08-09T06:45:22.221Z,28.70
2017-08-09T06:47:49.165Z,23.77
2017-08-09T06:50:16.110Z,32.13
2017-08-09T06:52:43.043Z,24.00
2017-08-09T06:55:10.016Z,27.23
2017-08-09T06:57:37.728Z,23.60
2017-08-09T07:00:04.684Z,24.60
2017-08-09T07:02:31.687Z,23.57
2017-08-09T07:04:58.664Z,25.37
2017-08-09T07:07:25.615Z,30.37
2017-08-09T07:09:52.591Z,26.80
2017-08-09T07:12:19.537Z,24.77
2017-08-09T07:14:46.483Z,33.13
2017-08-09T07:17:13.423Z,27.33
2017-08-09T07:19:41.488Z,24.53
2017-08-09T07:22:08.421Z,33.77
2017-08-09T07:24:35.378Z,25.27
2017-08-09T07:27:03.228Z,24.13
2017-08-09T07:29:30.171Z,32.20
2017-08-09T07:31:57.098Z,29.40
2017-08-09T07:34:24.030Z,29.57
2017-08-09T07:36:50.978Z,29.17
2017-08-09T07:39:18.873Z,24.83
2017-08-09T07:41:46.817Z,23.13
2017-08-09T07:44:13.753Z,21.53
2017-08-09T07:46:41.672Z,21.87
2017-08-09T07:49:08.625Z,26.30
2017-08-09T07:51:35.586Z,23.03
2017-08-09T07:54:03.293Z,28.70
2017-08-09T07:56:31.259Z,22.10
2017-08-09T07:58:58.201Z,21.73
2017-08-09T08:01:25.160Z,26.20
2017-08-09T08:03:53.107Z,23.00
2017-08-09T08:06:20.073Z,20.17
2017-08-09T08:08:47.014Z,21.53
2017-08-09T08:11:14.000Z,331.43
2017-08-09T08:13:42.733Z,153.87
2017-08-09T08:16:10.711Z,34.73
2017-08-09T08:18:40.577Z,63.07
2017-08-09T08:21:08.311Z,36.43
2017-08-09T08:23:36.164Z,30.17
2017-08-09T08:26:03.124Z,18.87
2017-08-09T08:28:30.070Z,22.97
2017-08-09T08:30:58.041Z,23.47
2017-08-09T08:33:25.021Z,14.27
2017-08-09T08:35:51.982Z,84.37
2017-08-09T08:38:22.502Z,68.03
2017-08-09T08:40:49.462Z,31.40
2017-08-09T08:43:16.397Z,33.83
2017-08-09T08:45:43.348Z,17.50
2017-08-09T08:48:10.295Z,15.97
2017-08-09T08:50:37.253Z,16.03
2017-08-09T08:53:04.205Z,11.87
2017-08-09T08:55:31.181Z,14.13
2017-08-09T08:57:59.113Z,13.63
2017-08-09T09:00:26.053Z,11.90
2017-08-09T09:02:52.994Z,13.37
2017-08-09T09:05:19.953Z,12.73
2017-08-09T09:07:46.893Z,44.97
2017-08-09T09:10:14.041Z,107.73
2017-08-09T09:12:40.982Z,96.13
2017-08-09T09:15:08.937Z,46.10
2017-08-09T09:17:35.897Z,16.40
2017-08-09T09:20:02.874Z,21.60
2017-08-09T09:22:29.855Z,20.33
2017-08-09T09:24:56.803Z,14.87
2017-08-09T09:27:23.757Z,16.37
2017-08-09T09:29:50.674Z,15.20
2017-08-09T09:32:18.612Z,12.00
2017-08-09T09:34:45.553Z,10.97
2017-08-09T09:37:13.523Z,15.33
2017-08-09T09:39:40.505Z,11.50
2017-08-09T09:42:08.378Z,14.30
2017-08-09T09:44:35.331Z,10.13
2017-08-09T09:47:02.288Z,8.73
2017-08-09T09:49:29.223Z,9.23
2017-08-09T09:51:56.949Z,14.97
2017-08-09T09:54:23.881Z,10.13
2017-08-09T09:56:50.840Z,9.57
2017-08-09T09:59:17.778Z,9.63
2017-08-09T10:01:44.749Z,8.87
2017-08-09T10:04:11.689Z,10.03
2017-08-09T10:06:39.549Z,8.53
2017-08-09T10:09:06.488Z,10.27
2017-08-09T10:11:33.457Z,7.40
2017-08-09T10:14:01.143Z,7.50
2017-08-09T10:16:29.017Z,6.60
2017-08-09T10:18:57.914Z,8.07
2017-08-09T10:21:24.873Z,7.50
2017-08-09T10:23:51.814Z,7.27
2017-08-09T10:26:18.775Z,6.17
2017-08-09T10:28:45.738Z,8.37
2017-08-09T10:31:12.693Z,6.63
2017-08-09T10:33:40.368Z,6.97
2017-08-09T10:36:09.250Z,8.23
2017-08-09T10:38:36.192Z,9.20
2017-08-09T10:41:07.694Z,11.40
2017-08-09T10:43:34.626Z,9.50
2017-08-09T10:46:03.548Z,7.63
2017-08-09T10:48:30.666Z,7.67
2017-08-09T10:50:57.631Z,6.13
2017-08-09T10:53:24.576Z,10.07
2017-08-09T10:55:51.504Z,9.10
2017-08-09T10:58:18.481Z,7.43
2017-08-09T11:00:45.425Z,6.53
2017-08-09T11:03:14.316Z,9.70
2017-08-09T11:05:41.298Z,8.37
2017-08-09T11:08:10.933Z,12.57
2017-08-09T11:10:38.982Z,7.37
2017-08-09T11:13:06.897Z,10.70
2017-08-09T11:15:33.842Z,14.13
2017-08-09T11:18:00.812Z,15.80
2017-08-09T11:20:27.749Z,11.20
2017-08-09T11:22:55.701Z,12.00
2017-08-09T11:25:22.661Z,13.17
2017-08-09T11:27:49.605Z,12.63
2017-08-09T11:30:17.561Z,12.77
2017-08-09T11:32:45.544Z,12.87
2017-08-09T11:35:13.478Z,11.73
2017-08-09T11:37:40.449Z,15.67
2017-08-09T11:40:07.396Z,9.07
2017-08-09T11:42:34.333Z,11.80
2017-08-09T11:45:01.305Z,10.27
2017-08-09T11:47:28.240Z,10.90
2017-08-09T11:49:55.203Z,10.80
2017-08-09T11:52:22.910Z,9.90
2017-08-09T11:54:51.201Z,12.50
2017-08-09T11:57:18.149Z,12.90
2017-08-09T11:59:45.080Z,12.53
2017-08-09T12:02:12.028Z,11.93
2017-08-09T12:04:38.964Z,12.97
2017-08-09T12:07:05.908Z,11.23
2017-08-09T12:09:32.869Z,12.20
2017-08-09T12:11:59.814Z,12.17
2017-08-09T12:14:26.757Z,11.13
2017-08-09T12:16:53.900Z,12.80
2017-08-09T12:19:21.649Z,12.70
2017-08-09T12:21:48.579Z,15.13
2017-08-09T12:24:15.537Z,15.23
2017-08-09T12:26:42.594Z,12.40
2017-08-09T12:29:09.528Z,13.43
2017-08-09T12:31:36.483Z,14.97
2017-08-09T12:34:03.413Z,13.93
2017-08-09T12:36:30.380Z,13.73
2017-08-09T12:38:57.313Z,13.17
2017-08-09T12:41:24.279Z,16.77
2017-08-09T12:43:51.234Z,18.83
2017-08-09T12:46:18.191Z,18.83
2017-08-09T12:48:45.149Z,18.63
2017-08-09T12:51:12.877Z,17.60
2017-08-09T12:53:40.572Z,17.00
2017-08-09T12:56:07.529Z,17.90
2017-08-09T12:58:34.473Z,18.57
2017-08-09T13:01:01.435Z,17.53
2017-08-09T13:03:28.370Z,19.57
2017-08-09T13:05:55.330Z,18.57
2017-08-09T13:08:22.261Z,15.83
2017-08-09T13:10:49.237Z,14.90
2017-08-09T13:13:16.201Z,13.10
2017-08-09T13:15:43.163Z,18.23
2017-08-09T13:18:10.100Z,11.70
2017-08-09T13:20:37.053Z,10.43
2017-08-09T13:23:04.960Z,11.17
2017-08-09T13:25:32.841Z,10.40
2017-08-09T13:27:59.778Z,13.73
2017-08-09T13:30:27.662Z,14.73
2017-08-09T13:32:54.600Z,14.27
2017-08-09T13:35:22.578Z,13.80
2017-08-09T13:37:49.521Z,14.63
2017-08-09T13:40:16.489Z,11.30
2017-08-09T13:42:44.195Z,14.47
2017-08-09T13:45:11.157Z,14.17
2017-08-09T13:47:38.093Z,14.83
2017-08-09T13:50:05.059Z,12.87
2017-08-09T13:52:31.993Z,12.37
2017-08-09T13:54:58.949Z,13.30
2017-08-09T13:57:26.819Z,15.93
2017-08-09T13:59:53.754Z,13.00
2017-08-09T14:02:20.679Z,14.00
2017-08-09T14:04:48.402Z,14.97
2017-08-09T14:07:15.349Z,11.67
2017-08-09T14:09:42.312Z,12.07
2017-08-09T14:12:09.251Z,20.73
2017-08-09T14:14:36.209Z,11.23
2017-08-09T14:17:03.915Z,11.60
2017-08-09T14:19:30.881Z,11.47
2017-08-09T14:21:57.825Z,8.97
2017-08-09T14:24:24.794Z,9.63
2017-08-09T14:26:51.733Z,10.70
2017-08-09T14:29:18.675Z,9.53
2017-08-09T14:31:45.612Z,9.70
2017-08-09T14:34:12.585Z,8.57
2017-08-09T14:36:39.531Z,7.53
2017-08-09T14:39:07.252Z,10.20
2017-08-09T14:41:34.193Z,9.10
2017-08-09T14:44:01.162Z,8.97
2017-08-09T14:46:28.103Z,8.90
2017-08-09T14:48:56.158Z,10.00
2017-08-09T14:51:25.109Z,7.93
2017-08-09T14:53:53.982Z,8.50
2017-08-09T14:56:22.937Z,9.43
2017-08-09T14:58:49.893Z,8.63
2017-08-09T15:01:16.846Z,9.17
2017-08-09T15:03:44.561Z,10.00
2017-08-09T15:06:11.516Z,7.73
2017-08-09T15:08:38.453Z,10.27
2017-08-09T15:11:06.355Z,9.90
2017-08-09T15:13:33.289Z,8.47
2017-08-09T15:16:00.254Z,8.50
2017-08-09T15:18:27.180Z,10.10
2017-08-09T15:20:54.147Z,8.87
2017-08-09T15:23:21.076Z,15.50
2017-08-09T15:25:48.033Z,9.43
2017-08-09T15:28:14.951Z,8.70
2017-08-09T15:30:41.899Z,10.10
2017-08-09T15:33:08.841Z,9.37
2017-08-09T15:35:36.560Z,9.80
2017-08-09T15:38:04.501Z,12.63
2017-08-09T15:40:31.452Z,10.63
2017-08-09T15:42:58.394Z,9.67
2017-08-09T15:45:25.382Z,11.27
2017-08-09T15:47:52.336Z,13.07
2017-08-09T15:50:20.075Z,11.77
2017-08-09T15:52:47.008Z,10.47
2017-08-09T15:55:13.997Z,9.87
2017-08-09T15:57:41.717Z,11.17
2017-08-09T16:00:09.738Z,10.17
2017-08-09T16:02:37.433Z,9.57
2017-08-09T16:05:04.459Z,11.40
2017-08-09T16:07:31.408Z,9.23
2017-08-09T16:09:58.336Z,8.77
2017-08-09T16:12:27.319Z,10.70
2017-08-09T16:14:54.249Z,9.20
2017-08-09T16:17:21.201Z,7.33
2017-08-09T16:19:49.178Z,8.20
2017-08-09T16:22:16.137Z,9.10
2017-08-09T16:24:43.066Z,10.73
2017-08-09T16:27:10.034Z,9.00
2017-08-09T16:29:36.964Z,9.73
2017-08-09T16:32:03.910Z,8.37
2017-08-09T16:34:30.850Z,9.80
2017-08-09T16:36:57.825Z,13.90
2017-08-09T16:39:25.551Z,10.57
2017-08-09T16:41:52.515Z,17.40
2017-08-09T16:44:20.471Z,12.10
2017-08-09T16:46:47.434Z,11.00
2017-08-09T16:49:14.384Z,10.17
2017-08-09T16:51:41.349Z,11.83
2017-08-09T16:54:08.303Z,12.27
2017-08-09T16:56:36.053Z,13.73
2017-08-09T16:59:03.005Z,10.57
2017-08-09T17:01:30.082Z,13.70
2017-08-09T17:03:57.041Z,10.47
2017-08-09T17:06:24.003Z,9.97
2017-08-09T17:08:50.972Z,12.13
2017-08-09T17:11:17.927Z,12.37
2017-08-09T17:13:44.898Z,11.80
2017-08-09T17:16:11.881Z,12.37
2017-08-09T17:18:38.803Z,10.97
2017-08-09T17:21:05.747Z,12.23
2017-08-09T17:23:32.671Z,13.47
2017-08-09T17:26:00.392Z,12.73
2017-08-09T17:28:27.319Z,12.23
2017-08-09T17:30:54.270Z,14.47
2017-08-09T17:33:21.208Z,10.97
2017-08-09T17:35:49.213Z,11.40
2017-08-09T17:38:16.231Z,11.37
2017-08-09T17:40:43.223Z,11.97
2017-08-09T17:43:10.177Z,18.17
2017-08-09T17:45:37.884Z,13.60
2017-08-09T17:48:04.842Z,15.20
2017-08-09T17:50:31.780Z,14.33
2017-08-09T17:52:58.731Z,14.47
2017-08-09T17:55:25.792Z,13.30
2017-08-09T17:57:52.762Z,14.43
2017-08-09T18:00:20.457Z,15.67
2017-08-09T18:02:47.410Z,14.13
2017-08-09T18:05:14.391Z,14.03
2017-08-09T18:07:41.362Z,13.23
2017-08-09T18:10:08.345Z,16.53
2017-08-09T18:12:35.670Z,12.70
2017-08-09T18:15:03.400Z,14.80
2017-08-09T18:17:30.369Z,13.90
2017-08-09T18:19:58.079Z,17.73
2017-08-09T18:22:25.014Z,14.57
2017-08-09T18:24:51.978Z,14.07
2017-08-09T18:27:18.944Z,13.37
2017-08-09T18:29:45.880Z,14.27
2017-08-09T18:32:12.829Z,14.90
2017-08-09T18:34:39.802Z,16.00
2017-08-09T18:37:06.749Z,14.57
2017-08-09T18:39:34.473Z,14.60
2017-08-09T18:42:01.502Z,15.93
2017-08-09T18:44:28.482Z,13.05
2017-08-09T18:46:55.424Z,16.57
2017-08-09T18:49:22.373Z,13.67
2017-08-09T18:51:49.327Z,16.40
2017-08-09T18:54:16.293Z,15.00
2017-08-09T18:56:43.218Z,17.00
2017-08-09T18:59:10.169Z,15.63
2017-08-09T19:01:37.878Z,14.90
2017-08-09T19:04:04.835Z,14.73
2017-08-09T19:06:31.768Z,20.43
2017-08-09T19:08:58.726Z,17.40
2017-08-09T19:11:25.656Z,19.50
2017-08-09T19:13:52.629Z,17.10
2017-08-09T19:16:19.590Z,17.00
2017-08-09T19:18:46.572Z,17.07
2017-08-09T19:21:13.530Z,16.80
2017-08-09T19:23:40.466Z,16.30
2017-08-09T19:26:07.404Z,18.67
2017-08-09T19:28:34.358Z,18.23
2017-08-09T19:31:01.301Z,16.80
2017-08-09T19:33:28.268Z,15.53
2017-08-09T19:35:55.214Z,15.50
2017-08-09T19:38:22.209Z,15.03
2017-08-09T19:40:49.961Z,16.23
2017-08-09T19:43:16.896Z,16.93
2017-08-09T19:45:43.844Z,17.03
2017-08-09T19:48:10.796Z,16.90
2017-08-09T19:50:37.732Z,21.30
2017-08-09T19:53:04.852Z,15.60
2017-08-09T19:55:31.829Z,19.80
2017-08-09T19:57:58.829Z,16.53
2017-08-09T20:00:25.953Z,17.17
2017-08-09T20:02:52.900Z,18.77
2017-08-09T20:05:19.856Z,15.67
2017-08-09T20:07:48.819Z,16.73
2017-08-09T20:10:15.986Z,15.83
2017-08-09T20:12:44.108Z,15.93
2017-08-09T20:15:11.157Z,15.27
2017-08-09T20:17:38.121Z,18.33
2017-08-09T20:20:05.067Z,14.87
2017-08-09T20:22:33.568Z,15.77
2017-08-09T20:25:00.605Z,15.30
2017-08-09T20:27:29.413Z,17.57
2017-08-09T20:29:56.419Z,17.43
2017-08-09T20:32:23.399Z,14.60
2017-08-09T20:34:50.357Z,14.20
2017-08-09T20:37:17.308Z,13.83
2017-08-09T20:39:44.360Z,14.17
2017-08-09T20:42:11.411Z,13.40
2017-08-09T20:44:38.392Z,12.90
2017-08-09T20:47:05.332Z,18.80
2017-08-09T20:49:32.288Z,16.40
2017-08-09T20:51:59.236Z,19.00
2017-08-09T20:54:26.205Z,15.60
2017-08-09T20:56:53.141Z,16.37
2017-08-09T20:59:20.100Z,19.43
2017-08-09T21:01:48.049Z,16.43
2017-08-09T21:04:16.948Z,13.87
2017-08-09T21:06:43.886Z,16.60
2017-08-09T21:09:10.845Z,18.43
2017-08-09T21:11:38.753Z,15.10
2017-08-09T21:14:06.797Z,15.57
2017-08-09T21:16:33.736Z,16.43
2017-08-09T21:19:00.705Z,20.37
2017-08-09T21:21:28.428Z,18.57
2017-08-09T21:23:57.421Z,16.30
2017-08-09T21:26:24.356Z,13.33
2017-08-09T21:28:51.333Z,13.67
2017-08-09T21:31:18.273Z,12.40
2017-08-09T21:33:46.234Z,12.43
2017-08-09T21:36:14.184Z,9.97
2017-08-09T21:38:41.200Z,16.80
2017-08-09T21:41:09.065Z,12.57
2017-08-09T21:43:36.001Z,11.40
2017-08-09T21:46:03.733Z,10.33
2017-08-09T21:48:30.673Z,11.43
2017-08-09T21:50:57.627Z,15.00
2017-08-09T21:53:25.535Z,8.37
2017-08-09T21:55:53.431Z,8.93
2017-08-09T21:58:21.380Z,10.63
2017-08-09T22:00:50.254Z,9.80
2017-08-09T22:03:17.208Z,11.03
2017-08-09T22:05:44.145Z,11.20
2017-08-09T22:08:11.098Z,12.77
2017-08-09T22:10:38.099Z,11.83
2017-08-09T22:13:05.068Z,7.20
2017-08-09T22:15:32.045Z,12.60
2017-08-09T22:17:58.980Z,9.90
2017-08-09T22:20:26.223Z,10.63
2017-08-09T22:22:53.304Z,8.13
2017-08-09T22:25:20.289Z,7.83
2017-08-09T22:27:47.327Z,10.87
2017-08-09T22:30:14.269Z,7.83
2017-08-09T22:32:41.225Z,10.60
2017-08-09T22:35:08.167Z,9.80
2017-08-09T22:37:35.133Z,15.10
2017-08-09T22:40:02.082Z,13.53
2017-08-09T22:42:29.035Z,15.67
2017-08-09T22:44:56.132Z,11.80
2017-08-09T22:47:23.090Z,12.33
2017-08-09T22:49:50.767Z,12.77
2017-08-09T22:52:18.737Z,15.70
2017-08-09T22:54:45.660Z,11.50
2017-08-09T22:57:14.193Z,16.20
2017-08-09T22:59:41.161Z,14.50
2017-08-09T23:02:09.893Z,15.00
2017-08-09T23:04:36.944Z,19.40
2017-08-09T23:07:03.878Z,13.90
2017-08-09T23:09:30.800Z,15.63
2017-08-09T23:11:58.512Z,13.93
2017-08-09T23:14:25.472Z,14.83
2017-08-09T23:16:53.225Z,10.97
2017-08-09T23:19:20.166Z,10.87
2017-08-09T23:21:47.125Z,20.70
2017-08-09T23:24:14.058Z,12.27
2017-08-09T23:26:41.031Z,11.63
2017-08-09T23:29:07.974Z,13.60
2017-08-09T23:31:36.302Z,14.30
2017-08-09T23:34:03.238Z,16.47
2017-08-09T23:36:31.103Z,10.80
2017-08-09T23:38:58.053Z,8.73
2017-08-09T23:41:24.996Z,9.57
2017-08-09T23:43:51.948Z,11.67
2017-08-09T23:46:18.867Z,13.87
2017-08-09T23:48:45.826Z,11.47
2017-08-09T23:51:12.761Z,13.00
2017-08-09T23:53:39.727Z,12.27
2017-08-09T23:56:06.671Z,12.50
2017-08-09T23:58:33.621Z,13.40
